sensor_id;sensor_type;location;lat;lon;timestamp;P1;durP1;ratioP1;P2;durP2;ratioP2
81841;SDS011;71284;50.918;7.092;2023-07-29T00:00:59;0.90;;;0.90;;
81841;SDS011;71284;50.918;7.092;2023-07-29T00:03:25;1.40;;;1.30;;
81841;SDS011;71284;50.918;7.092;2023-07-29T00:05:52;1.07;;;1.07;;
81841;SDS011;71284;50.918;7.092;2023-07-29T00:08:18;1.67;;;1.57;;
81841;SDS011;71284;50.918;7.092;2023-07-29T00:10:45;5.33;;;1.60;;
81841;SDS011;71284;50.918;7.092;2023-07-29T00:13:12;5.53;;;1.87;;
81841;SDS011;71284;50.918;7.092;2023-07-29T00:15:38;1.13;;;1.13;;
81841;SDS011;71284;50.918;7.092;2023-07-29T00:18:05;4.20;;;1.50;;
81841;SDS011;71284;50.918;7.092;2023-07-29T00:20:31;5.90;;;2.43;;
81841;SDS011;71284;50.918;7.092;2023-07-29T00:22:58;2.10;;;2.00;;
81841;SDS011;71284;50.918;7.092;2023-07-29T00:25:25;1.63;;;1.60;;
81841;SDS011;71284;50.918;7.092;2023-07-29T00:27:51;1.20;;;1.20;;
81841;SDS011;71284;50.918;7.092;2023-07-29T00:30:18;2.13;;;1.10;;
81841;SDS011;71284;50.918;7.092;2023-07-29T00:32:44;1.50;;;1.40;;
81841;SDS011;71284;50.918;7.092;2023-07-29T00:35:11;1.10;;;1.10;;
81841;SDS011;71284;50.918;7.092;2023-07-29T00:37:37;4.10;;;1.90;;
81841;SDS011;71284;50.918;7.092;2023-07-29T00:40:08;9.50;;;1.63;;
81841;SDS011;71284;50.918;7.092;2023-07-29T00:42:48;7.53;;;1.57;;
81841;SDS011;71284;50.918;7.092;2023-07-29T00:45:14;2.10;;;1.73;;
81841;SDS011;71284;50.918;7.092;2023-07-29T00:47:40;2.13;;;1.90;;
81841;SDS011;71284;50.918;7.092;2023-07-29T00:50:07;4.30;;;1.20;;
81841;SDS011;71284;50.918;7.092;2023-07-29T00:52:34;1.60;;;1.50;;
81841;SDS011;71284;50.918;7.092;2023-07-29T00:55:01;1.77;;;1.73;;
81841;SDS011;71284;50.918;7.092;2023-07-29T00:57:27;1.43;;;1.30;;
81841;SDS011;71284;50.918;7.092;2023-07-29T00:59:54;2.30;;;2.20;;
81841;SDS011;71284;50.918;7.092;2023-07-29T01:02:21;2.03;;;1.93;;
81841;SDS011;71284;50.918;7.092;2023-07-29T01:04:52;1.80;;;1.70;;
81841;SDS011;71284;50.918;7.092;2023-07-29T01:07:20;1.63;;;1.50;;
81841;SDS011;71284;50.918;7.092;2023-07-29T01:09:51;4.20;;;1.60;;
81841;SDS011;71284;50.918;7.092;2023-07-29T01:12:21;1.97;;;1.97;;
81841;SDS011;71284;50.918;7.092;2023-07-29T01:14:53;6.53;;;1.80;;
81841;SDS011;71284;50.918;7.092;2023-07-29T01:17:22;1.40;;;1.40;;
81841;SDS011;71284;50.918;7.092;2023-07-29T01:19:59;5.00;;;2.17;;
81841;SDS011;71284;50.918;7.092;2023-07-29T01:22:22;2.33;;;2.10;;
81841;SDS011;71284;50.918;7.092;2023-07-29T01:24:48;2.30;;;1.60;;
81841;SDS011;71284;50.918;7.092;2023-07-29T01:27:15;3.17;;;1.70;;
81841;SDS011;71284;50.918;7.092;2023-07-29T01:29:41;1.60;;;1.60;;
81841;SDS011;71284;50.918;7.092;2023-07-29T01:32:11;3.17;;;1.50;;
81841;SDS011;71284;50.918;7.092;2023-07-29T01:34:41;2.10;;;2.00;;
81841;SDS011;71284;50.918;7.092;2023-07-29T01:37:09;3.10;;;2.03;;
81841;SDS011;71284;50.918;7.092;2023-07-29T01:39:34;2.13;;;2.03;;
81841;SDS011;71284;50.918;7.092;2023-07-29T01:42:01;6.40;;;1.87;;
81841;SDS011;71284;50.918;7.092;2023-07-29T01:44:28;2.80;;;2.63;;
81841;SDS011;71284;50.918;7.092;2023-07-29T01:46:55;12.60;;;2.27;;
81841;SDS011;71284;50.918;7.092;2023-07-29T01:49:21;1.70;;;1.60;;
81841;SDS011;71284;50.918;7.092;2023-07-29T01:51:47;4.30;;;2.13;;
81841;SDS011;71284;50.918;7.092;2023-07-29T01:54:14;2.03;;;1.73;;
81841;SDS011;71284;50.918;7.092;2023-07-29T01:56:40;5.03;;;2.67;;
81841;SDS011;71284;50.918;7.092;2023-07-29T01:59:07;9.17;;;2.30;;
81841;SDS011;71284;50.918;7.092;2023-07-29T02:01:34;2.43;;;2.20;;
81841;SDS011;71284;50.918;7.092;2023-07-29T02:04:00;3.50;;;2.10;;
81841;SDS011;71284;50.918;7.092;2023-07-29T02:06:27;2.10;;;1.60;;
81841;SDS011;71284;50.918;7.092;2023-07-29T02:08:55;2.80;;;2.70;;
81841;SDS011;71284;50.918;7.092;2023-07-29T02:11:20;2.80;;;2.53;;
81841;SDS011;71284;50.918;7.092;2023-07-29T02:13:47;5.37;;;2.00;;
81841;SDS011;71284;50.918;7.092;2023-07-29T02:16:13;19.03;;;3.20;;
81841;SDS011;71284;50.918;7.092;2023-07-29T02:18:40;52.53;;;4.67;;
81841;SDS011;71284;50.918;7.092;2023-07-29T02:21:06;9.97;;;4.37;;
81841;SDS011;71284;50.918;7.092;2023-07-29T02:23:33;3.83;;;2.90;;
81841;SDS011;71284;50.918;7.092;2023-07-29T02:26:00;3.30;;;2.70;;
81841;SDS011;71284;50.918;7.092;2023-07-29T02:28:26;2.77;;;2.37;;
81841;SDS011;71284;50.918;7.092;2023-07-29T02:31:24;2.63;;;2.40;;
81841;SDS011;71284;50.918;7.092;2023-07-29T02:33:36;5.77;;;3.10;;
81841;SDS011;71284;50.918;7.092;2023-07-29T02:36:03;2.83;;;2.63;;
81841;SDS011;71284;50.918;7.092;2023-07-29T02:38:29;6.97;;;3.13;;
81841;SDS011;71284;50.918;7.092;2023-07-29T02:40:56;3.57;;;3.27;;
81841;SDS011;71284;50.918;7.092;2023-07-29T02:43:22;3.00;;;2.80;;
81841;SDS011;71284;50.918;7.092;2023-07-29T02:45:49;5.37;;;2.67;;
81841;SDS011;71284;50.918;7.092;2023-07-29T02:48:16;2.90;;;2.63;;
81841;SDS011;71284;50.918;7.092;2023-07-29T02:50:42;3.10;;;3.00;;
81841;SDS011;71284;50.918;7.092;2023-07-29T02:53:09;5.07;;;3.00;;
81841;SDS011;71284;50.918;7.092;2023-07-29T02:55:35;5.50;;;3.13;;
81841;SDS011;71284;50.918;7.092;2023-07-29T02:58:02;3.60;;;3.40;;
81841;SDS011;71284;50.918;7.092;2023-07-29T03:00:30;3.43;;;2.70;;
81841;SDS011;71284;50.918;7.092;2023-07-29T03:02:55;3.40;;;3.13;;
81841;SDS011;71284;50.918;7.092;2023-07-29T03:05:22;2.90;;;2.70;;
81841;SDS011;71284;50.918;7.092;2023-07-29T03:07:48;4.97;;;2.37;;
81841;SDS011;71284;50.918;7.092;2023-07-29T03:10:15;7.53;;;3.03;;
81841;SDS011;71284;50.918;7.092;2023-07-29T03:12:41;2.80;;;2.60;;
81841;SDS011;71284;50.918;7.092;2023-07-29T03:15:08;3.00;;;2.80;;
81841;SDS011;71284;50.918;7.092;2023-07-29T03:17:35;2.73;;;2.63;;
81841;SDS011;71284;50.918;7.092;2023-07-29T03:20:01;4.10;;;2.47;;
81841;SDS011;71284;50.918;7.092;2023-07-29T03:22:28;3.20;;;2.90;;
81841;SDS011;71284;50.918;7.092;2023-07-29T03:24:54;3.30;;;2.60;;
81841;SDS011;71284;50.918;7.092;2023-07-29T03:27:21;3.00;;;2.80;;
81841;SDS011;71284;50.918;7.092;2023-07-29T03:29:48;3.17;;;2.93;;
81841;SDS011;71284;50.918;7.092;2023-07-29T03:32:14;4.63;;;3.10;;
81841;SDS011;71284;50.918;7.092;2023-07-29T03:34:41;6.07;;;2.77;;
81841;SDS011;71284;50.918;7.092;2023-07-29T03:37:07;3.73;;;3.10;;
81841;SDS011;71284;50.918;7.092;2023-07-29T03:39:34;8.73;;;3.10;;
81841;SDS011;71284;50.918;7.092;2023-07-29T03:42:01;5.10;;;3.20;;
81841;SDS011;71284;50.918;7.092;2023-07-29T03:44:27;3.03;;;2.87;;
81841;SDS011;71284;50.918;7.092;2023-07-29T03:46:54;3.70;;;3.37;;
81841;SDS011;71284;50.918;7.092;2023-07-29T03:49:20;6.27;;;3.43;;
81841;SDS011;71284;50.918;7.092;2023-07-29T03:51:47;8.30;;;3.33;;
81841;SDS011;71284;50.918;7.092;2023-07-29T03:54:13;3.00;;;2.87;;
81841;SDS011;71284;50.918;7.092;2023-07-29T03:56:40;4.43;;;2.73;;
81841;SDS011;71284;50.918;7.092;2023-07-29T03:59:07;3.43;;;2.80;;
81841;SDS011;71284;50.918;7.092;2023-07-29T04:01:33;3.67;;;2.47;;
81841;SDS011;71284;50.918;7.092;2023-07-29T04:04:00;6.10;;;2.70;;
81841;SDS011;71284;50.918;7.092;2023-07-29T04:06:26;4.80;;;2.30;;
81841;SDS011;71284;50.918;7.092;2023-07-29T04:08:53;4.70;;;2.37;;
81841;SDS011;71284;50.918;7.092;2023-07-29T04:11:20;3.50;;;3.20;;
81841;SDS011;71284;50.918;7.092;2023-07-29T04:13:46;4.40;;;2.20;;
81841;SDS011;71284;50.918;7.092;2023-07-29T04:16:13;2.50;;;2.30;;
81841;SDS011;71284;50.918;7.092;2023-07-29T04:18:39;2.80;;;2.43;;
81841;SDS011;71284;50.918;7.092;2023-07-29T04:21:06;3.00;;;2.80;;
81841;SDS011;71284;50.918;7.092;2023-07-29T04:23:33;2.70;;;2.50;;
81841;SDS011;71284;50.918;7.092;2023-07-29T04:25:59;4.07;;;2.50;;
81841;SDS011;71284;50.918;7.092;2023-07-29T04:28:26;3.80;;;3.03;;
81841;SDS011;71284;50.918;7.092;2023-07-29T04:30:52;6.73;;;3.47;;
81841;SDS011;71284;50.918;7.092;2023-07-29T04:33:19;3.70;;;3.50;;
81841;SDS011;71284;50.918;7.092;2023-07-29T04:35:46;4.40;;;2.60;;
81841;SDS011;71284;50.918;7.092;2023-07-29T04:38:12;2.50;;;2.33;;
81841;SDS011;71284;50.918;7.092;2023-07-29T04:40:39;3.60;;;3.40;;
81841;SDS011;71284;50.918;7.092;2023-07-29T04:43:05;6.00;;;3.47;;
81841;SDS011;71284;50.918;7.092;2023-07-29T04:45:32;2.93;;;2.83;;
81841;SDS011;71284;50.918;7.092;2023-07-29T04:47:59;4.23;;;3.50;;
81841;SDS011;71284;50.918;7.092;2023-07-29T04:50:25;3.50;;;3.17;;
81841;SDS011;71284;50.918;7.092;2023-07-29T04:52:52;2.83;;;2.50;;
81841;SDS011;71284;50.918;7.092;2023-07-29T04:55:18;3.13;;;2.83;;
81841;SDS011;71284;50.918;7.092;2023-07-29T04:57:45;3.27;;;2.83;;
81841;SDS011;71284;50.918;7.092;2023-07-29T05:00:11;3.10;;;2.80;;
81841;SDS011;71284;50.918;7.092;2023-07-29T05:02:38;3.10;;;3.00;;
81841;SDS011;71284;50.918;7.092;2023-07-29T05:05:05;8.80;;;3.47;;
81841;SDS011;71284;50.918;7.092;2023-07-29T05:07:32;2.30;;;2.20;;
81841;SDS011;71284;50.918;7.092;2023-07-29T05:09:59;3.40;;;3.20;;
81841;SDS011;71284;50.918;7.092;2023-07-29T05:12:25;6.63;;;3.57;;
81841;SDS011;71284;50.918;7.092;2023-07-29T05:14:52;3.00;;;2.80;;
81841;SDS011;71284;50.918;7.092;2023-07-29T05:17:19;3.43;;;3.33;;
81841;SDS011;71284;50.918;7.092;2023-07-29T05:19:45;4.63;;;3.53;;
81841;SDS011;71284;50.918;7.092;2023-07-29T05:22:12;4.27;;;4.07;;
81841;SDS011;71284;50.918;7.092;2023-07-29T05:24:38;5.10;;;4.73;;
81841;SDS011;71284;50.918;7.092;2023-07-29T05:27:05;3.33;;;3.10;;
81841;SDS011;71284;50.918;7.092;2023-07-29T05:29:32;5.97;;;3.33;;
81841;SDS011;71284;50.918;7.092;2023-07-29T05:31:58;6.17;;;3.17;;
81841;SDS011;71284;50.918;7.092;2023-07-29T05:34:25;4.60;;;3.40;;
81841;SDS011;71284;50.918;7.092;2023-07-29T05:36:51;3.50;;;3.20;;
81841;SDS011;71284;50.918;7.092;2023-07-29T05:39:18;4.03;;;3.63;;
81841;SDS011;71284;50.918;7.092;2023-07-29T05:41:44;3.17;;;3.00;;
81841;SDS011;71284;50.918;7.092;2023-07-29T05:44:11;4.13;;;3.73;;
81841;SDS011;71284;50.918;7.092;2023-07-29T05:46:38;11.10;;;3.80;;
81841;SDS011;71284;50.918;7.092;2023-07-29T05:49:04;6.73;;;3.53;;
81841;SDS011;71284;50.918;7.092;2023-07-29T05:51:31;3.47;;;3.37;;
81841;SDS011;71284;50.918;7.092;2023-07-29T05:53:57;3.37;;;3.27;;
81841;SDS011;71284;50.918;7.092;2023-07-29T05:56:24;10.43;;;3.70;;
81841;SDS011;71284;50.918;7.092;2023-07-29T05:58:51;4.20;;;3.57;;
81841;SDS011;71284;50.918;7.092;2023-07-29T06:01:17;3.23;;;3.03;;
81841;SDS011;71284;50.918;7.092;2023-07-29T06:03:44;11.30;;;3.70;;
81841;SDS011;71284;50.918;7.092;2023-07-29T06:06:10;4.10;;;3.70;;
81841;SDS011;71284;50.918;7.092;2023-07-29T06:08:37;4.43;;;3.90;;
81841;SDS011;71284;50.918;7.092;2023-07-29T06:11:04;4.47;;;4.07;;
81841;SDS011;71284;50.918;7.092;2023-07-29T06:13:30;7.23;;;4.60;;
81841;SDS011;71284;50.918;7.092;2023-07-29T06:15:57;3.97;;;3.67;;
81841;SDS011;71284;50.918;7.092;2023-07-29T06:18:24;4.90;;;4.50;;
81841;SDS011;71284;50.918;7.092;2023-07-29T06:20:50;4.00;;;3.60;;
81841;SDS011;71284;50.918;7.092;2023-07-29T06:23:16;3.17;;;3.07;;
81841;SDS011;71284;50.918;7.092;2023-07-29T06:25:43;6.13;;;3.33;;
81841;SDS011;71284;50.918;7.092;2023-07-29T06:28:10;2.20;;;1.93;;
81841;SDS011;71284;50.918;7.092;2023-07-29T06:30:36;3.47;;;2.53;;
81841;SDS011;71284;50.918;7.092;2023-07-29T06:33:03;2.50;;;2.40;;
81841;SDS011;71284;50.918;7.092;2023-07-29T06:35:29;5.00;;;3.10;;
81841;SDS011;71284;50.918;7.092;2023-07-29T06:37:56;5.73;;;2.97;;
81841;SDS011;71284;50.918;7.092;2023-07-29T06:40:23;2.93;;;2.60;;
81841;SDS011;71284;50.918;7.092;2023-07-29T06:42:49;3.33;;;3.13;;
81841;SDS011;71284;50.918;7.092;2023-07-29T06:45:16;3.37;;;3.17;;
81841;SDS011;71284;50.918;7.092;2023-07-29T06:47:42;2.43;;;2.20;;
81841;SDS011;71284;50.918;7.092;2023-07-29T06:50:09;7.57;;;3.47;;
81841;SDS011;71284;50.918;7.092;2023-07-29T06:52:36;7.77;;;3.63;;
81841;SDS011;71284;50.918;7.092;2023-07-29T06:55:02;3.43;;;3.10;;
81841;SDS011;71284;50.918;7.092;2023-07-29T06:57:29;4.87;;;2.80;;
81841;SDS011;71284;50.918;7.092;2023-07-29T06:59:56;5.03;;;3.13;;
81841;SDS011;71284;50.918;7.092;2023-07-29T07:02:22;2.73;;;2.53;;
81841;SDS011;71284;50.918;7.092;2023-07-29T07:04:49;3.10;;;2.43;;
81841;SDS011;71284;50.918;7.092;2023-07-29T07:07:16;3.27;;;3.17;;
81841;SDS011;71284;50.918;7.092;2023-07-29T07:09:42;2.37;;;2.17;;
81841;SDS011;71284;50.918;7.092;2023-07-29T07:12:09;6.13;;;2.87;;
81841;SDS011;71284;50.918;7.092;2023-07-29T07:14:36;2.60;;;2.50;;
81841;SDS011;71284;50.918;7.092;2023-07-29T07:17:02;3.13;;;2.83;;
81841;SDS011;71284;50.918;7.092;2023-07-29T07:19:29;8.73;;;2.43;;
81841;SDS011;71284;50.918;7.092;2023-07-29T07:21:55;2.33;;;1.80;;
81841;SDS011;71284;50.918;7.092;2023-07-29T07:24:22;2.77;;;2.63;;
81841;SDS011;71284;50.918;7.092;2023-07-29T07:26:48;2.50;;;2.27;;
81841;SDS011;71284;50.918;7.092;2023-07-29T07:29:15;4.47;;;2.23;;
81841;SDS011;71284;50.918;7.092;2023-07-29T07:31:42;2.17;;;2.07;;
81841;SDS011;71284;50.918;7.092;2023-07-29T07:34:08;5.20;;;1.87;;
81841;SDS011;71284;50.918;7.092;2023-07-29T07:36:35;4.90;;;2.90;;
81841;SDS011;71284;50.918;7.092;2023-07-29T07:39:01;4.83;;;2.43;;
81841;SDS011;71284;50.918;7.092;2023-07-29T07:41:28;2.20;;;2.00;;
81841;SDS011;71284;50.918;7.092;2023-07-29T07:43:55;14.20;;;2.43;;
81841;SDS011;71284;50.918;7.092;2023-07-29T07:46:21;7.80;;;2.60;;
81841;SDS011;71284;50.918;7.092;2023-07-29T07:48:48;2.47;;;2.27;;
81841;SDS011;71284;50.918;7.092;2023-07-29T07:51:14;3.83;;;2.23;;
81841;SDS011;71284;50.918;7.092;2023-07-29T07:53:41;5.60;;;2.33;;
81841;SDS011;71284;50.918;7.092;2023-07-29T07:56:07;2.63;;;2.40;;
81841;SDS011;71284;50.918;7.092;2023-07-29T07:58:34;2.07;;;1.87;;
81841;SDS011;71284;50.918;7.092;2023-07-29T08:01:02;2.40;;;2.20;;
81841;SDS011;71284;50.918;7.092;2023-07-29T08:03:31;2.40;;;2.10;;
81841;SDS011;71284;50.918;7.092;2023-07-29T08:05:57;2.40;;;2.17;;
81841;SDS011;71284;50.918;7.092;2023-07-29T08:08:25;5.20;;;2.43;;
81841;SDS011;71284;50.918;7.092;2023-07-29T08:10:51;1.73;;;1.60;;
81841;SDS011;71284;50.918;7.092;2023-07-29T08:13:17;2.10;;;2.00;;
81841;SDS011;71284;50.918;7.092;2023-07-29T08:15:45;1.87;;;1.77;;
81841;SDS011;71284;50.918;7.092;2023-07-29T08:18:13;3.20;;;2.70;;
81841;SDS011;71284;50.918;7.092;2023-07-29T08:20:39;3.23;;;3.03;;
81841;SDS011;71284;50.918;7.092;2023-07-29T08:23:06;4.30;;;1.80;;
81841;SDS011;71284;50.918;7.092;2023-07-29T08:25:33;5.80;;;2.53;;
81841;SDS011;71284;50.918;7.092;2023-07-29T08:27:59;6.37;;;3.20;;
81841;SDS011;71284;50.918;7.092;2023-07-29T08:30:26;5.13;;;2.03;;
81841;SDS011;71284;50.918;7.092;2023-07-29T08:32:52;5.87;;;1.70;;
81841;SDS011;71284;50.918;7.092;2023-07-29T08:35:19;2.40;;;2.00;;
81841;SDS011;71284;50.918;7.092;2023-07-29T08:37:46;3.30;;;2.53;;
81841;SDS011;71284;50.918;7.092;2023-07-29T08:40:12;3.33;;;1.60;;
81841;SDS011;71284;50.918;7.092;2023-07-29T08:42:39;2.17;;;2.03;;
81841;SDS011;71284;50.918;7.092;2023-07-29T08:45:06;2.13;;;2.03;;
81841;SDS011;71284;50.918;7.092;2023-07-29T08:47:33;6.13;;;1.40;;
81841;SDS011;71284;50.918;7.092;2023-07-29T08:50:01;4.37;;;1.63;;
81841;SDS011;71284;50.918;7.092;2023-07-29T08:52:27;0.97;;;0.97;;
81841;SDS011;71284;50.918;7.092;2023-07-29T08:54:53;1.50;;;1.23;;
81841;SDS011;71284;50.918;7.092;2023-07-29T08:57:20;9.60;;;1.60;;
81841;SDS011;71284;50.918;7.092;2023-07-29T08:59:47;2.07;;;1.50;;
81841;SDS011;71284;50.918;7.092;2023-07-29T09:02:14;0.83;;;0.80;;
81841;SDS011;71284;50.918;7.092;2023-07-29T09:04:40;1.30;;;1.27;;
81841;SDS011;71284;50.918;7.092;2023-07-29T09:07:07;3.13;;;1.37;;
81841;SDS011;71284;50.918;7.092;2023-07-29T09:09:33;1.20;;;0.83;;
81841;SDS011;71284;50.918;7.092;2023-07-29T09:12:00;0.97;;;0.97;;
81841;SDS011;71284;50.918;7.092;2023-07-29T09:14:27;2.80;;;1.10;;
81841;SDS011;71284;50.918;7.092;2023-07-29T09:16:53;6.77;;;1.93;;
81841;SDS011;71284;50.918;7.092;2023-07-29T09:19:20;1.80;;;1.30;;
81841;SDS011;71284;50.918;7.092;2023-07-29T09:21:46;1.87;;;1.17;;
81841;SDS011;71284;50.918;7.092;2023-07-29T09:24:15;1.43;;;1.43;;
81841;SDS011;71284;50.918;7.092;2023-07-29T09:26:40;1.20;;;1.20;;
81841;SDS011;71284;50.918;7.092;2023-07-29T09:29:06;1.43;;;0.97;;
81841;SDS011;71284;50.918;7.092;2023-07-29T09:31:33;1.50;;;1.40;;
81841;SDS011;71284;50.918;7.092;2023-07-29T09:34:00;1.23;;;1.13;;
81841;SDS011;71284;50.918;7.092;2023-07-29T09:36:26;6.53;;;1.30;;
81841;SDS011;71284;50.918;7.092;2023-07-29T09:38:53;2.17;;;1.10;;
81841;SDS011;71284;50.918;7.092;2023-07-29T09:41:19;1.60;;;1.50;;
81841;SDS011;71284;50.918;7.092;2023-07-29T09:43:46;1.60;;;1.17;;
81841;SDS011;71284;50.918;7.092;2023-07-29T09:46:12;1.20;;;1.13;;
81841;SDS011;71284;50.918;7.092;2023-07-29T09:48:39;2.50;;;1.60;;
81841;SDS011;71284;50.918;7.092;2023-07-29T09:51:14;3.43;;;1.80;;
81841;SDS011;71284;50.918;7.092;2023-07-29T09:53:43;3.97;;;1.90;;
81841;SDS011;71284;50.918;7.092;2023-07-29T09:56:09;3.47;;;2.13;;
81841;SDS011;71284;50.918;7.092;2023-07-29T09:58:35;1.67;;;1.33;;
81841;SDS011;71284;50.918;7.092;2023-07-29T10:01:02;2.00;;;1.83;;
81841;SDS011;71284;50.918;7.092;2023-07-29T10:03:28;5.13;;;1.30;;
81841;SDS011;71284;50.918;7.092;2023-07-29T10:05:55;2.97;;;1.03;;
81841;SDS011;71284;50.918;7.092;2023-07-29T10:08:22;1.30;;;1.20;;
81841;SDS011;71284;50.918;7.092;2023-07-29T10:10:49;1.33;;;1.23;;
81841;SDS011;71284;50.918;7.092;2023-07-29T10:13:15;1.40;;;1.30;;
81841;SDS011;71284;50.918;7.092;2023-07-29T10:15:41;1.43;;;1.30;;
81841;SDS011;71284;50.918;7.092;2023-07-29T10:18:08;1.60;;;1.50;;
81841;SDS011;71284;50.918;7.092;2023-07-29T10:20:35;1.30;;;1.30;;
81841;SDS011;71284;50.918;7.092;2023-07-29T10:23:01;1.60;;;0.87;;
81841;SDS011;71284;50.918;7.092;2023-07-29T10:25:32;1.23;;;1.13;;
81841;SDS011;71284;50.918;7.092;2023-07-29T10:27:56;1.37;;;1.10;;
81841;SDS011;71284;50.918;7.092;2023-07-29T10:30:22;0.83;;;0.80;;
81841;SDS011;71284;50.918;7.092;2023-07-29T10:32:49;1.37;;;0.97;;
81841;SDS011;71284;50.918;7.092;2023-07-29T10:35:16;1.00;;;0.93;;
81841;SDS011;71284;50.918;7.092;2023-07-29T10:37:42;1.27;;;1.17;;
81841;SDS011;71284;50.918;7.092;2023-07-29T10:40:09;3.10;;;1.23;;
81841;SDS011;71284;50.918;7.092;2023-07-29T10:42:36;1.27;;;0.80;;
81841;SDS011;71284;50.918;7.092;2023-07-29T10:47:45;2.23;;;1.40;;
81841;SDS011;71284;50.918;7.092;2023-07-29T10:50:19;2.10;;;1.20;;
81841;SDS011;71284;50.918;7.092;2023-07-29T10:52:48;2.80;;;1.23;;
81841;SDS011;71284;50.918;7.092;2023-07-29T10:57:48;1.73;;;1.63;;
81841;SDS011;71284;50.918;7.092;2023-07-29T11:00:15;1.97;;;1.53;;
81841;SDS011;71284;50.918;7.092;2023-07-29T11:02:41;2.40;;;1.80;;
81841;SDS011;71284;50.918;7.092;2023-07-29T11:05:23;2.23;;;2.03;;
81841;SDS011;71284;50.918;7.092;2023-07-29T11:07:49;1.47;;;1.37;;
81841;SDS011;71284;50.918;7.092;2023-07-29T11:10:16;1.53;;;1.43;;
81841;SDS011;71284;50.918;7.092;2023-07-29T11:12:43;1.87;;;1.60;;
81841;SDS011;71284;50.918;7.092;2023-07-29T11:15:27;2.17;;;1.90;;
81841;SDS011;71284;50.918;7.092;2023-07-29T11:17:56;2.17;;;1.90;;
81841;SDS011;71284;50.918;7.092;2023-07-29T11:20:23;3.00;;;1.63;;
81841;SDS011;71284;50.918;7.092;2023-07-29T11:22:49;6.00;;;1.67;;
81841;SDS011;71284;50.918;7.092;2023-07-29T11:25:16;2.60;;;1.73;;
81841;SDS011;71284;50.918;7.092;2023-07-29T11:27:42;1.40;;;1.27;;
81841;SDS011;71284;50.918;7.092;2023-07-29T11:30:10;1.60;;;1.50;;
81841;SDS011;71284;50.918;7.092;2023-07-29T11:32:36;2.10;;;2.00;;
81841;SDS011;71284;50.918;7.092;2023-07-29T11:35:04;1.63;;;1.53;;
81841;SDS011;71284;50.918;7.092;2023-07-29T11:37:30;1.43;;;1.43;;
81841;SDS011;71284;50.918;7.092;2023-07-29T11:39:57;2.70;;;1.33;;
81841;SDS011;71284;50.918;7.092;2023-07-29T11:42:23;1.60;;;1.60;;
81841;SDS011;71284;50.918;7.092;2023-07-29T11:44:50;2.80;;;1.90;;
81841;SDS011;71284;50.918;7.092;2023-07-29T11:47:17;1.80;;;1.70;;
81841;SDS011;71284;50.918;7.092;2023-07-29T11:49:43;3.37;;;1.57;;
81841;SDS011;71284;50.918;7.092;2023-07-29T11:52:10;2.10;;;2.00;;
81841;SDS011;71284;50.918;7.092;2023-07-29T11:54:37;4.30;;;1.27;;
81841;SDS011;71284;50.918;7.092;2023-07-29T11:57:06;4.33;;;1.60;;
81841;SDS011;71284;50.918;7.092;2023-07-29T11:59:32;1.93;;;1.83;;
81841;SDS011;71284;50.918;7.092;2023-07-29T12:01:59;1.30;;;1.30;;
81841;SDS011;71284;50.918;7.092;2023-07-29T12:04:25;1.17;;;1.07;;
81841;SDS011;71284;50.918;7.092;2023-07-29T12:06:51;8.13;;;1.53;;
81841;SDS011;71284;50.918;7.092;2023-07-29T12:09:18;4.10;;;1.83;;
81841;SDS011;71284;50.918;7.092;2023-07-29T12:11:45;2.40;;;1.90;;
81841;SDS011;71284;50.918;7.092;2023-07-29T12:14:11;2.30;;;1.50;;
81841;SDS011;71284;50.918;7.092;2023-07-29T12:16:42;1.60;;;1.50;;
81841;SDS011;71284;50.918;7.092;2023-07-29T12:19:08;13.40;;;1.53;;
81841;SDS011;71284;50.918;7.092;2023-07-29T12:21:35;3.03;;;1.63;;
81841;SDS011;71284;50.918;7.092;2023-07-29T12:24:02;1.33;;;1.23;;
81841;SDS011;71284;50.918;7.092;2023-07-29T12:26:29;2.43;;;1.63;;
81841;SDS011;71284;50.918;7.092;2023-07-29T12:28:55;4.07;;;1.50;;
81841;SDS011;71284;50.918;7.092;2023-07-29T12:31:28;4.83;;;1.60;;
81841;SDS011;71284;50.918;7.092;2023-07-29T12:33:49;1.80;;;1.50;;
81841;SDS011;71284;50.918;7.092;2023-07-29T12:36:16;2.70;;;1.33;;
81841;SDS011;71284;50.918;7.092;2023-07-29T12:38:42;2.03;;;1.17;;
81841;SDS011;71284;50.918;7.092;2023-07-29T12:41:08;1.80;;;1.30;;
81841;SDS011;71284;50.918;7.092;2023-07-29T12:43:35;1.10;;;1.00;;
81841;SDS011;71284;50.918;7.092;2023-07-29T12:46:02;2.70;;;0.93;;
81841;SDS011;71284;50.918;7.092;2023-07-29T12:48:28;1.20;;;1.20;;
81841;SDS011;71284;50.918;7.092;2023-07-29T12:50:55;1.73;;;0.93;;
81841;SDS011;71284;50.918;7.092;2023-07-29T12:53:22;0.83;;;0.83;;
81841;SDS011;71284;50.918;7.092;2023-07-29T12:55:49;1.30;;;1.23;;
81841;SDS011;71284;50.918;7.092;2023-07-29T12:58:15;1.17;;;1.10;;
81841;SDS011;71284;50.918;7.092;2023-07-29T13:00:42;1.10;;;1.10;;
81841;SDS011;71284;50.918;7.092;2023-07-29T13:03:08;1.23;;;1.13;;
81841;SDS011;71284;50.918;7.092;2023-07-29T13:05:35;1.57;;;1.47;;
81841;SDS011;71284;50.918;7.092;2023-07-29T13:08:02;1.67;;;1.57;;
81841;SDS011;71284;50.918;7.092;2023-07-29T13:10:28;1.30;;;1.20;;
81841;SDS011;71284;50.918;7.092;2023-07-29T13:12:55;0.97;;;0.97;;
81841;SDS011;71284;50.918;7.092;2023-07-29T13:15:21;1.63;;;1.53;;
81841;SDS011;71284;50.918;7.092;2023-07-29T13:17:48;1.50;;;1.40;;
81841;SDS011;71284;50.918;7.092;2023-07-29T13:20:15;1.30;;;1.30;;
81841;SDS011;71284;50.918;7.092;2023-07-29T13:22:41;3.47;;;1.00;;
81841;SDS011;71284;50.918;7.092;2023-07-29T13:25:08;1.27;;;1.00;;
81841;SDS011;71284;50.918;7.092;2023-07-29T13:27:34;1.13;;;1.13;;
81841;SDS011;71284;50.918;7.092;2023-07-29T13:30:01;1.17;;;1.10;;
81841;SDS011;71284;50.918;7.092;2023-07-29T13:32:28;1.70;;;1.60;;
81841;SDS011;71284;50.918;7.092;2023-07-29T13:34:54;1.33;;;1.23;;
81841;SDS011;71284;50.918;7.092;2023-07-29T13:37:21;1.63;;;1.17;;
81841;SDS011;71284;50.918;7.092;2023-07-29T13:39:47;1.67;;;1.57;;
81841;SDS011;71284;50.918;7.092;2023-07-29T13:42:14;3.80;;;1.57;;
81841;SDS011;71284;50.918;7.092;2023-07-29T13:44:41;10.70;;;1.40;;
81841;SDS011;71284;50.918;7.092;2023-07-29T13:47:07;1.83;;;1.50;;
81841;SDS011;71284;50.918;7.092;2023-07-29T13:49:34;1.80;;;1.70;;
81841;SDS011;71284;50.918;7.092;2023-07-29T13:52:00;1.80;;;1.70;;
81841;SDS011;71284;50.918;7.092;2023-07-29T13:54:27;1.57;;;1.50;;
81841;SDS011;71284;50.918;7.092;2023-07-29T13:56:53;4.57;;;2.07;;
81841;SDS011;71284;50.918;7.092;2023-07-29T13:59:20;1.90;;;1.80;;
81841;SDS011;71284;50.918;7.092;2023-07-29T14:01:47;2.00;;;1.90;;
81841;SDS011;71284;50.918;7.092;2023-07-29T14:04:13;1.90;;;1.80;;
81841;SDS011;71284;50.918;7.092;2023-07-29T14:06:40;3.73;;;2.27;;
81841;SDS011;71284;50.918;7.092;2023-07-29T14:09:06;2.00;;;1.90;;
81841;SDS011;71284;50.918;7.092;2023-07-29T14:11:33;2.40;;;2.13;;
81841;SDS011;71284;50.918;7.092;2023-07-29T14:14:00;3.90;;;2.67;;
81841;SDS011;71284;50.918;7.092;2023-07-29T14:16:26;2.80;;;2.67;;
81841;SDS011;71284;50.918;7.092;2023-07-29T14:18:53;1.77;;;1.67;;
81841;SDS011;71284;50.918;7.092;2023-07-29T14:21:19;2.20;;;2.00;;
81841;SDS011;71284;50.918;7.092;2023-07-29T14:23:46;2.93;;;2.67;;
81841;SDS011;71284;50.918;7.092;2023-07-29T14:26:13;1.90;;;1.80;;
81841;SDS011;71284;50.918;7.092;2023-07-29T14:28:39;2.90;;;2.53;;
81841;SDS011;71284;50.918;7.092;2023-07-29T14:31:06;2.30;;;2.20;;
81841;SDS011;71284;50.918;7.092;2023-07-29T14:33:32;3.37;;;1.63;;
81841;SDS011;71284;50.918;7.092;2023-07-29T14:35:59;4.13;;;2.67;;
81841;SDS011;71284;50.918;7.092;2023-07-29T14:38:25;2.40;;;2.20;;
81841;SDS011;71284;50.918;7.092;2023-07-29T14:40:52;1.60;;;1.50;;
81841;SDS011;71284;50.918;7.092;2023-07-29T14:43:19;5.80;;;1.57;;
81841;SDS011;71284;50.918;7.092;2023-07-29T14:45:45;2.00;;;1.90;;
81841;SDS011;71284;50.918;7.092;2023-07-29T14:48:12;1.93;;;1.83;;
81841;SDS011;71284;50.918;7.092;2023-07-29T14:50:38;2.43;;;2.23;;